Time;durP1;ratioP1;P1;durP2;ratioP2;P2;SDS_P1;SDS_P2;PMS_P1;PMS_P2;Temp;Humidity;BMP_temperature;BMP_pressure;BME280_temperature;BME280_humidity;BME280_pressure;Samples;Min_cycle;Max_cycle;Signal;HPM_P1;HPM_P2
2022/09/05 00:01:39;;;;;;;3.53;2.90;;;16.00;99.90;;;;;;7350684;32;20194;-57
2022/09/05 00:05:53;;;;;;;;;;;16.00;99.90;;;;;;7355838;32;20134;-57
2022/09/05 00:10:17;;;;;;;4.87;3.20;;;16.00;99.90;;;;;;7350863;32;20022;-58
2022/09/05 00:14:30;;;;;;;3.70;3.30;;;16.00;99.90;;;;;;7354607;32;20135;-57
2022/09/05 00:19:23;;;;;;;7.12;3.10;;;16.00;99.90;;;;;;7353829;32;20100;-57
2022/09/05 00:24:04;;;;;;;5.30;2.92;;;15.90;99.90;;;;;;7346355;32;20206;-58
2022/09/05 00:29:01;;;;;;;3.87;3.20;;;15.90;99.90;;;;;;7356309;32;20597;-57
2022/09/05 00:33:21;;;;;;;3.08;2.70;;;15.80;99.90;;;;;;7359485;32;20161;-58
2022/09/05 00:37:44;;;;;;;4.40;3.08;;;15.80;99.90;;;;;;7361771;32;20149;-58
2022/09/05 00:41:48;;;;;;;4.68;3.17;;;15.70;99.90;;;;;;7357367;32;20130;-58
2022/09/05 00:46:13;;;;;;;5.70;3.45;;;15.70;99.90;;;;;;7356831;32;20190;-58
2022/09/05 00:50:28;;;;;;;4.45;3.12;;;15.60;99.90;;;;;;7350542;32;20322;-58
2022/09/05 00:54:43;;;;;;;4.22;3.67;;;15.50;99.90;;;;;;7354832;32;20625;-58
2022/09/05 00:59:28;;;;;;;4.35;3.47;;;15.40;99.90;;;;;;7354504;32;20321;-59
2022/09/05 01:03:56;;;;;;;3.65;3.05;;;15.40;99.90;;;;;;7358932;32;20228;-58
2022/09/05 01:08:28;;;;;;;4.30;3.35;;;15.40;99.90;;;;;;7353872;32;20110;-58
2022/09/05 01:12:41;;;;;;;;;;;15.30;99.90;;;;;;7352923;32;20302;-58
2022/09/05 01:17:21;;;;;;;6.68;3.00;;;15.30;99.90;;;;;;7351866;32;20275;-58
2022/09/05 01:21:57;;;;;;;3.60;2.97;;;15.30;99.90;;;;;;7356491;32;20127;-58
2022/09/05 01:25:58;;;;;;;7.37;3.30;;;15.30;99.90;;;;;;7356548;32;20190;-58
2022/09/05 01:30:11;;;;;;;3.87;3.08;;;15.20;99.90;;;;;;7362092;32;20397;-58
2022/09/05 01:34:31;;;;;;;6.18;3.28;;;15.10;99.90;;;;;;7354645;32;20160;-58
2022/09/05 01:38:45;;;;;;;3.78;3.12;;;15.10;99.90;;;;;;7352195;32;20218;-58
2022/09/05 01:43:34;;;;;;;3.97;3.33;;;15.10;99.90;;;;;;7356679;32;20211;-58
2022/09/05 01:47:38;;;;;;;7.37;3.53;;;15.10;99.90;;;;;;7353814;32;20275;-58
2022/09/05 01:52:22;;;;;;;3.97;2.80;;;15.10;99.90;;;;;;7356467;32;20441;-58
2022/09/05 01:56:34;;;;;;;4.68;3.78;;;15.00;99.90;;;;;;7353132;32;20274;-58
2022/09/05 02:00:58;;;;;;;4.32;3.30;;;15.00;99.90;;;;;;7350197;32;20140;-58
2022/09/05 02:06:01;;;;;;;3.85;3.03;;;14.90;99.90;;;;;;7352556;32;20320;-57
2022/09/05 02:10:54;;;;;;;5.80;3.58;;;14.90;99.90;;;;;;7353171;32;20143;-58
2022/09/05 02:15:24;;;;;;;3.35;3.03;;;14.90;99.90;;;;;;7328636;32;20263;-58
2022/09/05 02:19:30;;;;;;;4.20;3.53;;;14.80;99.90;;;;;;7350019;32;20348;-58
2022/09/05 02:23:37;;;;;;;5.57;3.65;;;14.80;99.90;;;;;;7354654;32;20231;-57
2022/09/05 02:27:54;;;;;;;5.20;3.15;;;14.80;99.90;;;;;;7359780;32;20785;-58
2022/09/05 02:32:19;;;;;;;5.07;3.60;;;14.80;99.90;;;;;;7348179;32;21014;-57
2022/09/05 02:36:33;;;;;;;7.95;3.30;;;14.70;99.90;;;;;;7356703;32;20247;-58
2022/09/05 02:40:38;;;;;;;6.20;3.05;;;14.60;99.90;;;;;;7354284;32;20219;-58
2022/09/05 02:44:59;;;;;;;5.40;3.85;;;14.60;99.90;;;;;;7358411;32;20155;-57
2022/09/05 02:49:43;;;;;;;3.65;2.92;;;14.60;99.90;;;;;;7346750;32;20573;-58
2022/09/05 02:54:11;;;;;;;6.62;3.47;;;14.60;99.90;;;;;;7351406;32;20194;-58
2022/09/05 02:58:36;;;;;;;6.55;3.58;;;14.60;99.90;;;;;;7349216;32;20454;-58
2022/09/05 03:03:13;;;;;;;3.97;2.97;;;14.60;99.90;;;;;;7346785;32;20103;-58
2022/09/05 03:07:20;;;;;;;6.00;3.60;;;14.60;99.90;;;;;;7353989;32;20107;-58
2022/09/05 03:11:41;;;;;;;;;;;14.60;99.90;;;;;;7352923;32;20191;-58
2022/09/05 03:15:55;;;;;;;4.28;3.25;;;14.70;99.90;;;;;;7355776;32;20014;-58
2022/09/05 03:20:34;;;;;;;5.85;3.42;;;14.70;99.90;;;;;;7355021;32;20175;-58
2022/09/05 03:25:13;;;;;;;5.43;3.25;;;14.80;99.90;;;;;;7352368;32;20267;-58
2022/09/05 03:30:00;;;;;;;7.28;3.45;;;14.80;99.90;;;;;;7353170;32;20223;-58
2022/09/05 03:34:38;;;;;;;4.50;3.53;;;14.80;99.90;;;;;;7347559;32;20279;-58
2022/09/05 03:38:58;;;;;;;6.05;3.30;;;14.70;99.90;;;;;;7353348;32;20504;-58
2022/09/05 03:43:08;;;;;;;7.60;3.58;;;14.70;99.90;;;;;;7350320;32;20213;-58
2022/09/05 03:48:03;;;;;;;4.97;3.10;;;14.70;99.90;;;;;;7352369;32;20162;-58
2022/09/05 03:52:38;;;;;;;6.72;3.62;;;14.70;99.90;;;;;;7302170;32;20130;-59
2022/09/05 03:57:38;;;;;;;3.65;3.30;;;14.70;99.90;;;;;;7346023;32;20141;-58
2022/09/05 04:01:52;;;;;;;5.90;3.17;;;14.70;99.90;;;;;;7336866;32;20164;-58
2022/09/05 04:06:32;;;;;;;5.85;3.67;;;14.70;99.90;;;;;;7352615;32;20590;-59
2022/09/05 04:10:56;;;;;;;6.60;3.40;;;14.70;99.90;;;;;;7356742;32;20100;-58
2022/09/05 04:15:21;;;;;;;5.03;3.62;;;14.60;99.90;;;;;;7356829;32;20125;-58
2022/09/05 04:19:49;;;;;;;4.53;3.80;;;14.60;99.90;;;;;;7360206;32;20107;-58
2022/09/05 04:23:58;;;;;;;5.40;3.55;;;14.60;99.90;;;;;;7356194;32;20134;-67
2022/09/05 04:28:18;;;;;;;6.22;3.62;;;14.50;99.90;;;;;;7352517;32;20171;-67
2022/09/05 04:32:43;;;;;;;6.22;3.60;;;14.50;99.90;;;;;;7356072;32;20630;-67
2022/09/05 04:36:57;;;;;;;7.62;3.10;;;14.50;99.90;;;;;;7362290;32;20201;-67
2022/09/05 04:41:03;;;;;;;9.07;3.60;;;14.50;99.90;;;;;;7354359;32;20145;-67
2022/09/05 04:45:13;;;;;;;4.55;3.60;;;14.40;99.90;;;;;;7358927;32;20171;-67
2022/09/05 04:49:49;;;;;;;7.78;3.85;;;14.30;99.90;;;;;;7350849;32;20099;-67
2022/09/05 04:54:24;;;;;;;7.03;3.70;;;14.30;99.90;;;;;;7358283;32;20160;-67
2022/09/05 04:58:35;;;;;;;4.47;3.50;;;14.20;99.90;;;;;;7357533;32;20100;-56
2022/09/05 05:03:09;;;;;;;11.90;7.35;;;14.20;99.90;;;;;;7362983;32;20561;-56
2022/09/05 05:08:25;;;;;;;13.43;8.27;;;14.10;99.90;;;;;;7360067;32;20186;-55
2022/09/05 05:13:22;;;;;;;9.38;3.72;;;14.20;99.90;;;;;;7307642;32;20111;-56
2022/09/05 05:18:04;;;;;;;4.87;3.40;;;14.20;99.90;;;;;;7352407;32;20149;-57
2022/09/05 05:22:26;;;;;;;4.05;3.20;;;14.20;99.90;;;;;;7355977;32;20216;-56
2022/09/05 05:26:58;;;;;;;7.43;3.30;;;14.20;99.90;;;;;;7355820;32;20115;-56
2022/09/05 05:31:15;;;;;;;7.80;3.80;;;14.20;99.90;;;;;;7353902;32;20262;-56
2022/09/05 05:35:28;;;;;;;5.83;3.63;;;14.30;99.90;;;;;;7354377;32;20238;-57
2022/09/05 05:39:36;;;;;;;8.35;4.03;;;14.30;99.90;;;;;;7353815;32;20597;-64
2022/09/05 05:43:41;;;;;;;7.47;4.10;;;14.30;99.90;;;;;;7361268;32;20119;-65
2022/09/05 05:47:55;;;;;;;23.20;18.25;;;14.40;99.90;;;;;;7357506;32;20123;-64
2022/09/05 05:52:03;;;;;;;9.30;7.25;;;14.50;99.90;;;;;;7351791;32;20237;-64
2022/09/05 05:56:29;;;;;;;7.72;5.15;;;14.60;99.90;;;;;;7360872;32;20269;-65
2022/09/05 06:00:52;;;;;;;5.25;3.47;;;14.60;99.90;;;;;;7351216;32;20125;-65
2022/09/05 06:05:18;;;;;;;7.35;3.55;;;14.70;99.90;;;;;;7362526;32;20118;-65
2022/09/05 06:09:22;;;;;;;7.43;5.22;;;14.80;99.90;;;;;;7362222;32;20533;-64
2022/09/05 06:14:09;;;;;;;20.92;16.37;;;14.90;99.90;;;;;;7359994;32;20762;-65
2022/09/05 06:18:43;;;;;;;15.63;11.65;;;15.10;99.90;;;;;;7360233;32;20686;-65
2022/09/05 06:23:05;;;;;;;8.60;6.35;;;15.20;99.90;;;;;;7360809;32;20230;-65
2022/09/05 06:27:35;;;;;;;4.95;4.45;;;15.40;99.90;;;;;;7361938;32;20100;-64
2022/09/05 06:31:56;;;;;;;6.53;3.72;;;15.50;99.90;;;;;;7353912;32;20095;-64
2022/09/05 06:36:15;;;;;;;4.40;3.60;;;15.80;99.90;;;;;;7360153;32;20095;-65
2022/09/05 06:40:33;;;;;;;7.12;3.60;;;16.00;99.90;;;;;;7352932;32;20337;-65
2022/09/05 06:44:54;;;;;;;7.90;3.90;;;16.20;99.90;;;;;;7353747;32;20240;-65
2022/09/05 06:49:16;;;;;;;5.55;3.70;;;16.40;99.90;;;;;;7355730;32;20218;-65
2022/09/05 06:53:34;;;;;;;6.45;2.60;;;16.60;99.90;;;;;;7363464;32;20224;-65
2022/09/05 06:58:06;;;;;;;3.87;2.10;;;16.90;99.90;;;;;;7357477;32;20103;-64
2022/09/05 07:02:38;;;;;;;2.78;2.35;;;17.30;99.90;;;;;;7359320;32;20304;-64
2022/09/05 07:07:34;;;;;;;4.25;2.00;;;17.80;99.90;;;;;;7356929;32;20210;-63
2022/09/05 07:11:39;;;;;;;2.97;1.90;;;18.20;99.90;;;;;;7358050;32;20639;-64
2022/09/05 07:16:06;;;;;;;4.68;2.03;;;18.40;99.90;;;;;;7365707;32;20240;-64
2022/09/05 07:20:22;;;;;;;4.77;1.90;;;18.50;99.90;;;;;;7363175;32;20187;-65
2022/09/05 07:24:27;;;;;;;2.78;1.73;;;18.70;99.90;;;;;;7362024;32;20103;-64
2022/09/05 07:28:53;;;;;;;3.22;1.65;;;18.90;99.90;;;;;;7363273;32;20099;-65
2022/09/05 07:33:00;;;;;;;6.15;1.70;;;19.00;99.90;;;;;;7364889;32;20330;-64
2022/09/05 07:37:16;;;;;;;3.60;1.50;;;19.30;99.90;;;;;;7360232;32;20103;-65
2022/09/05 07:41:25;;;;;;;6.62;1.87;;;19.40;99.90;;;;;;7360466;32;20130;-65
2022/09/05 07:45:28;;;;;;;3.50;1.77;;;19.80;99.90;;;;;;7366308;32;20721;-64
2022/09/05 07:49:32;;;;;;;3.05;1.77;;;19.90;99.90;;;;;;7363216;32;20103;-65
2022/09/05 07:53:41;;;;;;;3.85;1.83;;;20.10;99.90;;;;;;7363322;32;20121;-64
2022/09/05 07:58:13;;;;;;;5.55;2.00;;;20.40;99.90;;;;;;7360171;32;20100;-64
2022/09/05 08:02:15;;;;;;;4.93;1.80;;;20.50;99.90;;;;;;7360050;32;20537;-64
2022/09/05 08:06:25;;;;;;;2.83;1.50;;;20.70;99.90;;;;;;7365212;32;20216;-64
2022/09/05 08:11:03;;;;;;;2.47;1.70;;;21.00;99.90;;;;;;7363739;32;20190;-65
2022/09/05 08:15:28;;;;;;;4.68;1.58;;;21.30;99.90;;;;;;7367038;32;20229;-65
2022/09/05 08:20:08;;;;;;;6.22;1.55;;;21.50;99.90;;;;;;7360579;32;20451;-64
2022/09/05 08:24:14;;;;;;;2.20;1.70;;;21.70;99.90;;;;;;7355337;32;20099;-64
2022/09/05 08:28:23;;;;;;;3.92;1.30;;;21.80;99.90;;;;;;7361297;32;20107;-64
2022/09/05 08:32:37;;;;;;;4.82;1.73;;;22.00;99.90;;;;;;7360874;32;20099;-64
2022/09/05 08:36:46;;;;;;;2.83;1.52;;;22.20;99.90;;;;;;7360307;32;20115;-64
2022/09/05 08:40:53;;;;;;;3.87;1.52;;;22.30;99.90;;;;;;7361539;32;20183;-64
2022/09/05 08:45:17;;;;;;;2.97;1.42;;;22.50;99.90;;;;;;7359358;32;20178;-63
2022/09/05 08:49:57;;;;;;;3.03;1.20;;;22.80;99.90;;;;;;7367397;32;20095;-64
2022/09/05 08:54:15;;;;;;;6.28;1.50;;;23.20;99.90;;;;;;7369493;32;20133;-64
2022/09/05 08:58:38;;;;;;;2.45;1.60;;;23.60;99.90;;;;;;7364693;32;20215;-64
2022/09/05 09:02:39;;;;;;;2.00;1.40;;;23.90;99.90;;;;;;7365930;32;20179;-64
2022/09/05 09:07:31;;;;;;;6.25;1.45;;;24.00;99.90;;;;;;7367520;32;20511;-65
2022/09/05 09:12:02;;;;;;;2.28;1.20;;;24.10;99.90;;;;;;7365001;32;20125;-64
2022/09/05 09:16:23;;;;;;;2.00;1.20;;;24.60;99.90;;;;;;7369773;32;20107;-65
2022/09/05 09:20:32;;;;;;;3.08;1.02;;;25.30;99.90;;;;;;7363149;32;20121;-65
2022/09/05 09:25:01;;;;;;;1.50;1.15;;;25.70;99.90;;;;;;7367468;32;20121;-65
2022/09/05 09:29:18;;;;;;;4.20;0.95;;;26.20;99.90;;;;;;7366333;32;20280;-64
2022/09/05 09:33:28;;;;;;;4.28;1.40;;;26.60;99.90;;;;;;7369989;32;20591;-57
2022/09/05 09:37:50;;;;;;;1.27;1.00;;;27.20;99.90;;;;;;7368136;32;20098;-64
2022/09/05 09:42:22;;;;;;;3.50;1.10;;;27.90;99.90;;;;;;7363469;32;20266;-64
2022/09/05 09:46:53;;;;;;;3.53;1.10;;;28.60;96.90;;;;;;7363758;32;20471;-64
2022/09/05 09:51:32;;;;;;;5.82;1.33;;;29.00;94.60;;;;;;7366368;32;20133;-64
2022/09/05 09:55:39;;;;;;;3.40;1.17;;;29.50;91.20;;;;;;7364795;32;20117;-64
2022/09/05 09:59:59;;;;;;;2.45;1.40;;;30.30;87.80;;;;;;7363123;32;20183;-64
2022/09/05 10:04:26;;;;;;;2.85;1.60;;;30.60;90.40;;;;;;7366334;32;20282;-64
2022/09/05 10:09:17;;;;;;;4.95;1.12;;;31.20;82.40;;;;;;7369229;32;20239;-63
2022/09/05 10:14:19;;;;;;;6.50;5.90;;;31.90;78.80;;;;;;7372465;32;20130;-63
2022/09/05 10:19:09;;;;;;;4.32;1.05;;;32.00;77.30;;;;;;7361836;32;20218;-63
2022/09/05 10:23:32;;;;;;;2.78;1.70;;;32.20;73.90;;;;;;7366595;32;20133;-63
2022/09/05 10:28:04;;;;;;;2.58;1.00;;;32.30;70.30;;;;;;7365651;32;20273;-64
2022/09/05 10:32:41;;;;;;;2.58;1.00;;;32.10;67.60;;;;;;7360173;32;20171;-63
2022/09/05 10:37:08;;;;;;;2.42;1.10;;;32.10;65.60;;;;;;7361947;32;21168;-63
2022/09/05 10:41:14;;;;;;;12.18;11.07;;;32.10;69.00;;;;;;7363453;32;20143;-63
2022/09/05 10:45:42;;;;;;;2.05;1.27;;;31.70;69.90;;;;;;7359759;32;22375;-63
2022/09/05 10:49:48;;;;;;;6.03;1.33;;;31.00;65.40;;;;;;7362628;32;20106;-63
2022/09/05 10:54:06;;;;;;;;;;;30.70;68.50;;;;;;7357684;32;20194;-63
2022/09/05 10:58:26;;;;;;;2.28;1.20;;;30.30;69.20;;;;;;7363769;32;20569;-63
2022/09/05 11:02:55;;;;;;;2.12;1.10;;;30.20;70.80;;;;;;7364479;32;20222;-63
2022/09/05 11:07:18;;;;;;;3.37;1.20;;;30.20;66.00;;;;;;7360715;32;20139;-63
2022/09/05 11:11:45;;;;;;;3.35;1.08;;;30.10;64.60;;;;;;7365950;32;20095;-63
2022/09/05 11:15:59;;;;;;;3.40;1.40;;;30.10;67.40;;;;;;7357664;32;20103;-63
2022/09/05 11:20:23;;;;;;;2.78;1.00;;;30.00;65.50;;;;;;7363300;32;20098;-62
2022/09/05 11:25:02;;;;;;;2.10;1.00;;;30.10;65.20;;;;;;7360915;32;20195;-63
2022/09/05 11:29:09;;;;;;;2.55;1.20;;;30.40;65.90;;;;;;7350382;32;20180;-63
2022/09/05 11:33:26;;;;;;;5.57;1.37;;;30.20;64.70;;;;;;7354721;32;20091;-55
2022/09/05 11:38:08;;;;;;;1.67;1.17;;;30.20;68.60;;;;;;7359078;32;20634;-56
2022/09/05 11:42:54;;;;;;;1.10;0.95;;;30.00;66.30;;;;;;7363300;32;20178;-56
2022/09/05 11:47:15;;;;;;;1.65;1.10;;;30.10;68.20;;;;;;7359805;32;20124;-58
2022/09/05 11:52:07;;;;;;;4.37;1.27;;;30.10;62.80;;;;;;7361198;32;20095;-58
2022/09/05 11:56:31;;;;;;;6.50;1.27;;;29.70;65.00;;;;;;7360055;32;20571;-58
2022/09/05 12:00:42;;;;;;;3.15;1.30;;;29.90;64.50;;;;;;7363177;32;20096;-57
2022/09/05 12:05:06;;;;;;;3.10;1.10;;;30.20;63.40;;;;;;7357938;32;20135;-58
2022/09/05 12:09:58;;;;;;;2.62;1.20;;;30.30;67.00;;;;;;7362838;32;20197;-64
2022/09/05 12:14:21;;;;;;;2.92;1.10;;;30.50;62.10;;;;;;7362236;32;20167;-64
2022/09/05 12:18:43;;;;;;;4.40;1.08;;;30.60;62.20;;;;;;7358194;32;20130;-64
2022/09/05 12:23:12;;;;;;;3.80;1.05;;;30.30;59.20;;;;;;7363750;32;21260;-64
2022/09/05 12:27:38;;;;;;;3.95;1.00;;;30.10;61.20;;;;;;7363608;32;20166;-65
2022/09/05 12:32:00;;;;;;;4.35;1.10;;;29.80;65.20;;;;;;7364666;32;20284;-65
2022/09/05 12:36:42;;;;;;;4.72;1.37;;;29.30;65.20;;;;;;7366947;32;20124;-57
2022/09/05 12:41:11;;;;;;;1.25;0.82;;;29.50;66.50;;;;;;7363957;32;20713;-63
2022/09/05 12:45:58;;;;;;;2.12;1.12;;;29.60;64.00;;;;;;7364156;32;20182;-63
2022/09/05 12:50:10;;;;;;;1.20;1.10;;;29.20;62.30;;;;;;7354384;32;20276;-63
2022/09/05 12:54:31;;;;;;;2.35;1.02;;;28.90;68.60;;;;;;7357216;32;20328;-62
2022/09/05 12:58:36;;;;;;;3.40;1.20;;;29.20;65.60;;;;;;7358814;32;20596;-63
2022/09/05 13:03:01;;;;;;;2.33;1.10;;;29.60;63.90;;;;;;7358797;32;20618;-62
2022/09/05 13:07:41;;;;;;;2.62;1.20;;;29.80;60.60;;;;;;7356674;32;20242;-62
2022/09/05 13:11:53;;;;;;;1.65;0.98;;;29.80;60.00;;;;;;7361674;32;20179;-62
2022/09/05 13:16:28;;;;;;;2.65;0.88;;;29.80;61.90;;;;;;7366701;32;20095;-63
2022/09/05 13:20:43;;;;;;;2.28;1.10;;;29.90;59.50;;;;;;7356898;32;20186;-63
2022/09/05 13:24:51;;;;;;;2.83;1.30;;;29.80;60.80;;;;;;7354129;32;20194;-63
2022/09/05 13:29:20;;;;;;;1.87;1.05;;;29.90;60.60;;;;;;7350959;32;20229;-63
2022/09/05 13:33:35;;;;;;;1.12;0.90;;;29.90;60.20;;;;;;7355397;32;20246;-63
2022/09/05 13:38:12;;;;;;;4.28;1.30;;;29.90;60.90;;;;;;7359046;32;20111;-62
2022/09/05 13:42:42;;;;;;;1.90;1.10;;;30.00;62.00;;;;;;7362376;32;20217;-63
2022/09/05 13:46:59;;;;;;;2.00;1.05;;;29.90;59.50;;;;;;7355258;32;20493;-62
2022/09/05 13:51:11;;;;;;;2.25;1.30;;;29.70;61.40;;;;;;7349487;32;20214;-63
2022/09/05 13:55:21;;;;;;;1.83;0.90;;;29.90;59.60;;;;;;7359509;32;20234;-62
2022/09/05 13:59:23;;;;;;;3.97;1.30;;;29.80;58.60;;;;;;7356842;32;20257;-62
2022/09/05 14:04:19;;;;;;;2.12;1.12;;;29.90;59.40;;;;;;7356426;32;20614;-62
2022/09/05 14:09:03;;;;;;;3.60;1.30;;;30.00;59.30;;;;;;7332426;32;20135;-63
2022/09/05 14:13:49;;;;;;;2.55;0.90;;;30.40;57.70;;;;;;7360940;32;20236;-63
2022/09/05 14:17:54;;;;;;;2.70;0.95;;;30.40;57.60;;;;;;7357227;32;20198;-62
2022/09/05 14:21:55;;;;;;;3.35;1.00;;;30.30;59.10;;;;;;7365917;32;20115;-63
2022/09/05 14:26:02;;;;;;;2.25;0.85;;;30.10;58.20;;;;;;7356206;32;20246;-63
2022/09/05 14:30:07;;;;;;;3.22;1.02;;;29.80;58.00;;;;;;7359717;32;20507;-64
2022/09/05 14:35:03;;;;;;;4.07;1.08;;;29.70;61.50;;;;;;7364275;32;20131;-63
2022/09/05 14:39:43;;;;;;;1.67;0.82;;;30.10;54.60;;;;;;7353892;32;20182;-62
2022/09/05 14:44:02;;;;;;;1.62;0.77;;;30.00;55.20;;;;;;7358366;32;20213;-63
2022/09/05 14:48:08;;;;;;;2.58;1.00;;;29.90;56.30;;;;;;7353304;32;20201;-63
2022/09/05 14:52:18;;;;;;;3.45;2.92;;;29.60;57.30;;;;;;7350039;32;20274;-63
2022/09/05 14:56:29;;;;;;;2.53;1.92;;;29.20;56.60;;;;;;7359388;32;20202;-62
2022/09/05 15:00:58;;;;;;;7.12;1.40;;;29.00;58.40;;;;;;7358631;32;20202;-62
2022/09/05 15:05:26;;;;;;;1.37;1.10;;;28.90;57.70;;;;;;7358981;32;20535;-62
2022/09/05 15:09:29;;;;;;;1.90;0.93;;;28.60;61.60;;;;;;7351690;32;21330;-62
2022/09/05 15:14:11;;;;;;;2.47;0.90;;;28.70;59.50;;;;;;7354145;32;20304;-62
2022/09/05 15:18:16;;;;;;;2.78;1.10;;;28.60;60.30;;;;;;7356656;32;20210;-62
2022/09/05 15:22:29;;;;;;;6.90;1.00;;;28.60;59.20;;;;;;7359788;32;20216;-62
2022/09/05 15:26:33;;;;;;;3.25;1.25;;;28.50;57.60;;;;;;7348050;32;20130;-62
2022/09/05 15:30:34;;;;;;;5.43;1.10;;;28.50;57.50;;;;;;7348525;32;20190;-62
2022/09/05 15:34:38;;;;;;;1.17;0.90;;;28.30;59.10;;;;;;7349447;32;20227;-63
2022/09/05 15:38:42;;;;;;;2.58;0.93;;;28.20;59.50;;;;;;7354997;32;20194;-63
2022/09/05 15:43:04;;;;;;;3.05;0.70;;;28.00;60.20;;;;;;7362494;32;20574;-64
2022/09/05 15:47:09;;;;;;;2.05;1.08;;;27.80;59.70;;;;;;7352610;32;20598;-63
2022/09/05 15:51:17;;;;;;;4.05;1.80;;;27.80;60.20;;;;;;7351174;32;20232;-62
2022/09/05 15:55:44;;;;;;;4.07;1.92;;;27.60;62.30;;;;;;7350473;32;20190;-63
2022/09/05 15:59:57;;;;;;;2.43;1.10;;;27.50;62.00;;;;;;7361386;32;21179;-61
2022/09/05 16:03:59;;;;;;;4.25;1.25;;;27.40;60.10;;;;;;7350812;32;20233;-62
2022/09/05 16:08:26;;;;;;;3.35;1.15;;;27.40;60.90;;;;;;7360949;32;20130;-63
2022/09/05 16:12:56;;;;;;;2.13;1.00;;;27.20;62.00;;;;;;7361328;32;20191;-63
2022/09/05 16:17:10;;;;;;;1.85;1.50;;;27.10;65.40;;;;;;7361182;32;20170;-63
2022/09/05 16:21:33;;;;;;;3.17;1.62;;;27.00;68.00;;;;;;7361960;32;20131;-55
2022/09/05 16:26:05;;;;;;;1.95;1.30;;;27.00;68.00;;;;;;7360460;32;20103;-63
2022/09/05 16:30:07;;;;;;;3.85;0.98;;;26.90;68.70;;;;;;7362836;32;20279;-60
2022/09/05 16:34:37;;;;;;;2.00;1.00;;;26.90;70.50;;;;;;7360347;32;20108;-62
2022/09/05 16:38:49;;;;;;;3.25;1.10;;;26.90;75.90;;;;;;7358649;32;20236;-62
2022/09/05 16:43:14;;;;;;;2.15;1.10;;;26.80;79.00;;;;;;7363821;32;20183;-62
2022/09/05 16:47:28;;;;;;;3.00;1.20;;;26.70;81.40;;;;;;7358059;32;20186;-62
2022/09/05 16:51:59;;;;;;;3.67;1.17;;;26.60;83.90;;;;;;7367061;32;20503;-62
2022/09/05 16:56:09;;;;;;;2.87;1.15;;;26.40;85.60;;;;;;7365998;32;20115;-62
2022/09/05 17:00:11;;;;;;;4.57;1.40;;;26.20;89.40;;;;;;7368163;32;20111;-62
2022/09/05 17:04:20;;;;;;;4.40;1.20;;;26.00;90.10;;;;;;7364715;32;20552;-62
2022/09/05 17:08:34;;;;;;;3.08;0.95;;;25.80;92.00;;;;;;7372017;32;20114;-62
2022/09/05 17:12:37;;;;;;;6.30;1.45;;;25.60;93.90;;;;;;7365006;32;20543;-62
2022/09/05 17:17:03;;;;;;;4.47;1.35;;;25.40;95.50;;;;;;7364841;32;20842;-62
2022/09/05 17:21:34;;;;;;;2.65;1.30;;;25.20;96.80;;;;;;7363951;32;20428;-63
2022/09/05 17:26:04;;;;;;;5.45;1.20;;;25.10;98.50;;;;;;7361288;32;20134;-63
2022/09/05 17:30:44;;;;;;;5.03;1.60;;;24.90;99.90;;;;;;7364940;32;20111;-63
2022/09/05 17:35:24;;;;;;;5.22;1.37;;;24.70;99.90;;;;;;7363447;32;20483;-63
2022/09/05 17:39:41;;;;;;;6.78;1.20;;;24.50;99.90;;;;;;7364147;32;20119;-62
2022/09/05 17:43:57;;;;;;;2.80;1.30;;;24.30;99.90;;;;;;7363735;32;20137;-62
2022/09/05 17:47:59;;;;;;;4.25;1.17;;;24.10;99.90;;;;;;7366347;32;20170;-64
2022/09/05 17:52:17;;;;;;;4.62;1.50;;;24.00;99.90;;;;;;7363208;32;21620;-62
2022/09/05 17:56:39;;;;;;;4.55;2.25;;;23.80;99.90;;;;;;7361803;32;20926;-63
2022/09/05 18:00:46;;;;;;;5.93;2.40;;;23.60;99.90;;;;;;7361891;32;20175;-64
2022/09/05 18:04:52;;;;;;;;;;;23.50;99.90;;;;;;7359860;32;20176;-64
2022/09/05 18:08:55;;;;;;;6.12;1.52;;;23.30;99.90;;;;;;7362412;32;20022;-66
2022/09/05 18:13:14;;;;;;;2.90;1.37;;;23.20;99.90;;;;;;7363572;32;20129;-66
2022/09/05 18:17:36;;;;;;;6.03;1.52;;;23.10;99.90;;;;;;7363314;32;20130;-68
2022/09/05 18:21:54;;;;;;;7.70;1.50;;;22.90;99.90;;;;;;7366770;32;20277;-60
2022/09/05 18:26:08;;;;;;;4.22;1.40;;;22.70;99.90;;;;;;7359579;32;20182;-59
2022/09/05 18:30:25;;;;;;;7.70;1.45;;;22.60;99.90;;;;;;7355723;32;20186;-62
2022/09/05 18:34:27;;;;;;;;;;;22.50;99.90;;;;;;7362094;32;20190;-60
2022/09/05 18:38:32;;;;;;;11.73;4.80;;;22.40;99.90;;;;;;7364832;32;20162;-61
2022/09/05 18:42:54;;;;;;;4.82;1.62;;;22.20;99.90;;;;;;7359888;32;20528;-62
2022/09/05 18:47:14;;;;;;;3.78;2.67;;;22.10;99.90;;;;;;7366028;32;20103;-62
2022/09/05 18:51:51;;;;;;;6.22;1.40;;;21.90;99.90;;;;;;7364098;32;20129;-62
2022/09/05 18:56:25;;;;;;;8.57;1.60;;;21.70;99.90;;;;;;7364535;32;20486;-62
2022/09/05 19:00:34;;;;;;;5.28;1.73;;;21.70;99.90;;;;;;7362149;32;20171;-61
2022/09/05 19:04:55;;;;;;;7.12;1.83;;;21.50;99.90;;;;;;7362919;32;20115;-62
2022/09/05 19:09:07;;;;;;;3.95;1.83;;;21.40;99.90;;;;;;7360871;32;20164;-62
2022/09/05 19:13:22;;;;;;;5.82;1.48;;;21.30;99.90;;;;;;7363775;32;20213;-61
2022/09/05 19:17:39;;;;;;;3.53;1.62;;;21.20;99.90;;;;;;7359077;32;20104;-62
2022/09/05 19:21:56;;;;;;;4.50;1.65;;;21.10;99.90;;;;;;7369628;32;20172;-61
2022/09/05 19:26:20;;;;;;;5.37;1.67;;;21.10;99.90;;;;;;7360161;32;20778;-62
2022/09/05 19:30:25;;;;;;;13.95;10.13;;;21.00;99.90;;;;;;7365962;32;20157;-63
2022/09/05 19:34:47;;;;;;;5.68;1.98;;;20.80;99.90;;;;;;7361761;32;20133;-63
2022/09/05 19:39:13;;;;;;;3.47;1.75;;;20.70;99.90;;;;;;7365867;32;20190;-61
2022/09/05 19:43:34;;;;;;;5.18;1.92;;;20.50;99.90;;;;;;7367677;32;20111;-63
2022/09/05 19:47:57;;;;;;;4.95;1.55;;;20.40;99.90;;;;;;7362027;32;20119;-64
2022/09/05 19:52:16;;;;;;;11.30;1.60;;;20.30;99.90;;;;;;7364658;32;20192;-62
2022/09/05 19:56:19;;;;;;;2.45;1.65;;;20.20;99.90;;;;;;7358983;32;20115;-61
2022/09/05 20:00:23;;;;;;;3.58;1.52;;;20.10;99.90;;;;;;7363073;32;20111;-62
2022/09/05 20:04:29;;;;;;;4.05;1.45;;;20.00;99.90;;;;;;7362004;32;20190;-62
2022/09/05 20:08:45;;;;;;;9.95;2.28;;;20.00;99.90;;;;;;7359895;32;20130;-59
2022/09/05 20:12:47;;;;;;;9.45;2.70;;;19.90;99.90;;;;;;7368171;32;20196;-61
2022/09/05 20:16:51;;;;;;;7.90;4.20;;;19.90;99.90;;;;;;7359655;32;20273;-61
2022/09/05 20:21:14;;;;;;;4.50;1.75;;;19.80;99.90;;;;;;7352695;32;20335;-60
2022/09/05 20:25:26;;;;;;;6.35;1.83;;;19.80;99.90;;;;;;7350275;32;20198;-61
2022/09/05 20:30:01;;;;;;;5.95;1.95;;;19.70;99.90;;;;;;7358401;32;20211;-60
2022/09/05 20:34:09;;;;;;;4.93;1.77;;;19.60;99.90;;;;;;7360675;32;20130;-60
2022/09/05 20:38:38;;;;;;;6.43;1.67;;;19.60;99.90;;;;;;7356082;32;20133;-60
2022/09/05 20:42:59;;;;;;;5.55;2.08;;;19.50;99.90;;;;;;7368524;32;20193;-62
2022/09/05 20:47:34;;;;;;;4.05;2.10;;;19.50;99.90;;;;;;7369135;32;20467;-60
2022/09/05 20:52:03;;;;;;;2.78;1.80;;;19.40;99.90;;;;;;7362973;32;20115;-61
2022/09/05 20:56:31;;;;;;;6.07;2.12;;;19.40;99.90;;;;;;7368227;32;20712;-61
2022/09/05 21:00:33;;;;;;;5.43;2.08;;;19.40;99.90;;;;;;7357037;32;20242;-58
2022/09/05 21:04:37;;;;;;;3.22;1.42;;;19.30;99.90;;;;;;7370119;32;20104;-59
2022/09/05 21:08:39;;;;;;;6.35;1.87;;;19.20;99.90;;;;;;7367396;32;20608;-58
2022/09/05 21:12:45;;;;;;;7.70;2.22;;;19.30;99.90;;;;;;7366259;32;20107;-60
2022/09/05 21:17:02;;;;;;;4.15;2.03;;;19.20;99.90;;;;;;7369791;32;20171;-59
2022/09/05 21:21:47;;;;;;;2.95;1.60;;;19.10;99.90;;;;;;7368362;32;20130;-59
2022/09/05 21:25:57;;;;;;;4.12;2.00;;;19.10;99.90;;;;;;7366209;32;20536;-59
2022/09/05 21:30:22;;;;;;;4.47;2.12;;;19.00;99.90;;;;;;7362759;32;20210;-59
2022/09/05 21:34:37;;;;;;;5.72;1.70;;;19.00;99.90;;;;;;7369571;32;20130;-58
2022/09/05 21:38:45;;;;;;;7.57;2.08;;;18.90;99.90;;;;;;7365736;32;20298;-58
2022/09/05 21:42:47;;;;;;;10.23;2.15;;;18.90;99.90;;;;;;7371515;32;20135;-58
2022/09/05 21:47:13;;;;;;;6.80;1.90;;;18.90;99.90;;;;;;7363660;32;20553;-59
2022/09/05 21:51:37;;;;;;;3.00;1.85;;;18.90;99.90;;;;;;7374432;32;20129;-58
2022/09/05 21:55:40;;;;;;;6.40;2.05;;;18.80;99.90;;;;;;7367458;32;20736;-58
2022/09/05 22:00:03;;;;;;;4.00;2.00;;;18.80;99.90;;;;;;7364441;32;20134;-59
2022/09/05 22:04:11;;;;;;;6.70;2.20;;;18.80;99.90;;;;;;7364545;32;20107;-58
2022/09/05 22:08:13;;;;;;;5.05;2.15;;;18.80;99.90;;;;;;7372842;32;20108;-58
2022/09/05 22:12:15;;;;;;;12.73;2.45;;;18.80;99.90;;;;;;7364942;32;20111;-58
2022/09/05 22:16:32;;;;;;;3.12;2.20;;;18.70;99.90;;;;;;7364091;32;20119;-58
2022/09/05 22:20:36;;;;;;;6.65;2.25;;;18.70;99.90;;;;;;7365889;32;20166;-58
2022/09/05 22:24:38;;;;;;;4.35;2.25;;;18.60;99.90;;;;;;7364795;32;20182;-58
2022/09/05 22:28:47;;;;;;;5.37;2.12;;;18.60;99.90;;;;;;7365712;32;20171;-59
2022/09/05 22:32:49;;;;;;;7.28;1.90;;;18.60;99.90;;;;;;7364214;32;20487;-59
2022/09/05 22:36:51;;;;;;;3.92;2.35;;;18.50;99.90;;;;;;7359099;32;20166;-59
2022/09/05 22:40:55;;;;;;;4.75;2.22;;;18.50;99.90;;;;;;7359178;32;20107;-58